Tiempo atmosférico en la estación meteorológica de Zamora, Zamora (656 m.)



Fecha
DESCASC
Temp. máxima en grados centígrados (hora)
DESCASC
Temp. mínima en grados centígrados (hora)
DESCASC
Temp. media en grados centígrados
DESCASC
Racha de viento máxima en m/sg (hora)
DESCASC
Velocidad máxima media en intervalos de 10 minutos(hora)
DESCASC
Precipitaciones diarias en mm
DESCASC
Precipitaciones de 00:00 a 06:00 en mm
DESCASC
Precipitaciones de 06:00 a 12:00 en mm
DESCASC
Precipitaciones de 12:00 a 18:00 en mm
DESCASC
Precipitaciones de 18:00 a 24:00 en mm
DESCASC
13-10-2019 23.7 (16:00) 13.7 (08:10) 18.7 10.56 (11:40) 4.44 (13:10) 0 0 0 0 0
12-10-2019 28.3 (16:50) 15.3 (09:50) 21.8 13.61 (18:20) 5.28 (14:50) 0 0 0 0 0
10-10-2019 25 (17:20) 8.4 (00:00) 16.7 6.67 (14:20) 3.61 (13:40) 0 0 0 0 0
09-10-2019 23.5 (17:10) 12.7 (00:00) 18.1 7.22 (14:40) 3.61 (14:10) 0 0 0 0 0
08-10-2019 29.9 (17:20) 11.3 (00:00) 20.6 7.22 (17:20) 2.5 (15:50) 0 0 0 0 0
07-10-2019 28.5 (17:10) 9.7 (00:00) 19.1 3.61 (17:10) 2.22 (19:10) 0 0 0 0 0
06-10-2019 26.4 (17:50) 9.4 (00:00) 17.9 4.72 (17:40) 1.94 (14:30) 0 0 0 0 0
05-10-2019 26.6 (17:20) 10.2 (08:30) 18.4 5.83 (18:30) 2.22 (11:10) 0 0 0 0 0
04-10-2019 25.8 (16:20) 12.2 (00:00) 19 5.56 (18:20) 2.22 (16:30) 0 0 0 0 0
03-10-2019 27.3 (17:00) 8.2 (00:00) 17.7 6.11 (01:30) 2.22 (01:40) 0 0 0 0 0
02-10-2019 23.4 (17:40) 9.9 (00:00) 16.6 6.39 (05:30) 2.78 (14:30) 0 0 0 0 0
01-10-2019 25.3 (17:00) 14.5 (00:00) 19.9 8.61 (14:50) 3.33 (14:50) 0 0 0 0 0
30-09-2019 30.1 (16:30) 12.6 (00:00) 21.4 6.39 (18:00) 2.22 (16:50) 0 0 0 0 0
29-09-2019 29.1 (17:10) 9.9 (00:00) 19.5 7.22 (15:50) 2.78 (15:00) 0 0 0 0 0
28-09-2019 28 (17:40) 8.4 (00:00) 18.2 4.17 (19:00) 2.5 (11:50) 0 0 0 0 0
27-09-2019 26.8 (17:00) 9.8 (00:00) 18.3 7.22 (15:20) 2.78 (19:10) 0 0 0 0 0
26-09-2019 27.8 (17:10) 11.2 (00:00) 19.5 6.39 (15:10) 2.5 (22:10) 0 0 0 0 0
25-09-2019 24.3 (16:10) 10.3 (00:00) 17.3 5.83 (17:10) 2.22 (16:40) 0 0 0 0 0
24-09-2019 25 (17:00) 13.3 (00:00) 19.2 8.61 (16:30) 3.33 (14:00) 0 0 0 0 0
23-09-2019 24.3 (17:50) 10.1 (00:00) 17.2 6.39 (18:30) 2.78 (18:40) 0 0 0 0 0
22-09-2019 21.6 (16:10) 12.3 (00:00) 17 8.33 (00:30) 3.06 (00:30) 0.6 0.6 0 0 0
21-09-2019 21.7 (15:50) 16.4 (00:00) 19.1 9.72 (17:10) 3.89 (17:10) 1.8 0 0.6 0.2 1
20-09-2019 28.7 (16:10) 15.3 (00:00) 22 7.78 (17:40) 3.33 (17:40) 0.2 0 0 0 0.2
19-09-2019 29.6 (17:10) 14.4 (00:00) 22 5 (14:10) 2.78 (10:50) 0 0 0 0 0
18-09-2019 27.8 (18:00) 13.7 (00:00) 20.7 10.56 (02:20) 3.61 (02:20) 0 0 0 0 0
17-09-2019 29.2 (16:10) 14.9 (00:00) 22.1 8.89 (18:40) 3.89 (18:40) 0 0 0 0 0
16-09-2019 26.9 (17:10) 15.1 (00:00) 21 6.11 (18:30) 2.78 (18:30) 0 0 0 0 0
15-09-2019 24.6 (16:40) 15.7 (00:00) 20.2 8.61 (16:50) 5 (16:40) 1.6 0 1.6 0 0

Gráficas

Temp. máximas Temp. mínimas Temp. medias Precipitaciones Rachas de viento máximas Velocidades máximas media en intervalos de 10 minutos

Datos horarios

Fecha y hora oficial Temperatura (ºC) Velocidad del viento (km/h) Dirección del viento Racha (km/h) Dirección de racha Precipitación (mm) Presión (hPa) Tendencia (hPa) Humedad (%)
2019-10-14 23:00:00 8.6 7 Oeste 21 Sudoeste 0 941 2 80
2019-10-14 22:00:00 8.5 6 Oeste 21 Sudoeste 0 940.3 2.7 84
2019-10-14 21:00:00 8.4 7 Oeste 19 Sudoeste 0 939.9 2.7 84
2019-10-14 20:00:00 9.1 7 Oeste 40 Oeste 1 939 2.4 84
2019-10-14 19:00:00 11.3 9 Sudoeste 22 Oeste 0 937.6 1.8 76
2019-10-14 18:00:00 10.7 9 Oeste 32 Oeste 0.2 937.2 2.1 77
2019-10-14 17:00:00 11.6 12 Oeste 32 Oeste 0.4 936.6 0.6 74
2019-10-14 16:00:00 12.8 12 Sudoeste 38 Sudoeste 0.4 935.8 0.2 81
2019-10-14 15:00:00 13.9 13 Sudoeste 31 Sudoeste 0.4 935.1 -0.4 76
2019-10-14 14:00:00 13.5 9 Sudoeste 31 Sudoeste 0.4 936 0.6 81
2019-10-14 13:00:00 15 11 Sudoeste 37 Sudoeste 0 935.6 1.1 65
2019-10-14 12:00:00 15 10 Sudoeste 28 Sudoeste 0 935.5 2 67
2019-10-14 11:00:00 12.9 9 Sudoeste 23 Sudoeste 0.2 935.4 3.1 80
2019-10-14 10:00:00 11.6 5 Sudoeste 17 Sudoeste 0 934.5 2.3 89
2019-10-14 09:00:00 11.6 5 Oeste 46 Oeste 8 933.5 1.2 89
2019-10-14 08:00:00 14.7 6 Sudoeste 22 Oeste 1.6 932.3 -0.2 85
2019-10-14 07:00:00 15.1 8 Sudoeste 21 Sur 0 932.2 -0.8 73
2019-10-14 06:00:00 14.8 5 Sudoeste 15 Oeste 0 932.3 -1.5 70
2019-10-14 05:00:00 14.8 5 Sudoeste 13 Sudoeste 0 932.5 -2.1 67
2019-10-14 04:00:00 13.5 2 Oeste 4 Oeste 0 933 -2.3 71
2019-10-14 03:00:00 13.9 0 Calma 5 Sur 0 933.8 -2.1 70
2019-10-14 02:00:00 14.5 4 Sudeste 7 Sudeste 0 934.6 -1.9 67
2019-10-14 01:00:00 15.1 2 Sur 9 Sur 0 935.3 -1.2 63
2019-10-14 00:00:00 16.1 3 Sur 6 Sudeste 0 935.9 -1 60
2019-10-13 23:00:00 16.6 3 Sur 6 Sur 0 936.5 -0.2 57
2019-10-13 22:00:00 17.7 4 Sudoeste 15 Sudoeste 0 936.5 0 54
2019-10-13 21:00:00 18.7 6 Sudoeste 18 Sudoeste 0 936.9 0.4 50
2019-10-13 20:00:00 19.6 8 Sudoeste 31 Sudoeste 0 936.7 -0.2 47
2019-10-13 19:00:00 20.9 12 Sudoeste 29 Sur 0 936.5 -0.7 43
2019-10-13 18:00:00 22 10 Sudoeste 29 Sudoeste 0 936.5 -1.1 41
2019-10-13 17:00:00 23.3 11 Sudoeste 32 Sudoeste 0 936.9 -1.4 38
2019-10-13 16:00:00 23.6 10 Sudoeste 31 Sudoeste 0 937.2 -1.5 37
2019-10-13 15:00:00 23.2 12 Sudoeste 31 Sudoeste 0 937.6 -1.4 43
2019-10-13 14:00:00 21.1 9 Sudoeste 31 Sudoeste 0 938.3 -0.7 48
2019-10-13 13:00:00 19.9 13 Sudoeste 36 Sudoeste 0 938.7 0 51
2019-10-13 12:00:00 18.7 12 Sudoeste 38 Sudoeste 0 939 0.8 57
2019-10-13 11:00:00 17 12 Sudoeste 29 Sudoeste 0 939 0.8 62
2019-10-13 10:00:00 14.7 8 Sudoeste 23 Sudoeste 0 938.7 0.7 73
2019-10-13 09:00:00 14 8 Sudoeste 23 Sudoeste 0 938.2 0.9 76
2019-10-13 08:00:00 13.8 9 Sudoeste 23 Noroeste 0 938.2 1.1 80
2019-10-13 07:00:00 14.6 6 Oeste 15 Noroeste 0 938 0.8 79
2019-10-13 06:00:00 14.9 3 Oeste 14 Sur 0 937.3 -0.1 82
2019-10-13 05:00:00 15.4 4 Oeste 15 Sudoeste 0 937.1 -0.4 80
2019-10-13 04:00:00 16.2 4 Sur 15 Sudoeste 0 937.2 -0.3 77
2019-10-13 03:00:00 17.4 6 Sudoeste 18 Oeste 0 937.4 0 74
2019-10-13 02:00:00 18.2 7 Sudoeste 17 Sudoeste 0 937.5 0.4 69
2019-10-13 01:00:00 18.7 4 Sudoeste 12 Sur 0 937.5 1 57
2019-10-13 00:00:00 19.5 6 Sur 13 Sur 0 937.4 0.9 46
2019-10-12 23:00:00 21.1 7 Sur 15 Sur 0 937.1 1 42
2019-10-12 22:00:00 21.9 7 Sur 13 Sur 0 936.5 0.5 39
2019-10-12 21:00:00 23.4 5 Sur 15 Sudoeste 0 936.5 0.4 36
2019-10-12 20:00:00 24.9 6 Sur 27 Sudoeste 0 936.1 -0.2 31
2019-10-12 19:00:00 26.1 13 Sur 49 Sudoeste 0 936 -0.8 30
2019-10-12 18:00:00 27.3 11 Sudoeste 37 Sudoeste 0 936.1 -1.4 27
2019-10-12 17:00:00 28.2 13 Sudoeste 40 Sudoeste 0 936.3 -2 26
2019-10-12 16:00:00 28 15 Sur 36 Sudoeste 0 936.8 -2.1 26
2019-10-12 15:00:00 27.6 18 Sudoeste 41 Sudoeste 0 937.5 -1.9 27
2019-10-12 14:00:00 27 14 Sudoeste 34 Sudoeste 0 938.3 -1.5 30
2019-10-12 13:00:00 24.8 3 Sudoeste 9 Norte 0 938.9 -0.8 40
2019-10-12 12:00:00 22 5 Sudeste 11 Sur 0 939.4 0.4 53
2019-10-12 11:00:00 17.7 2 Este 4 Este 0 939.8 0.6 66
2019-10-12 10:00:00 15.4 3 Nordeste 9 Nordeste 0 939.7 0.6 71
2019-10-12 09:00:00 17 0 Calma 13 Sudoeste 0 939 -0.2 65
2019-10-12 08:00:00 17.2 4 Sudoeste 12 Sudoeste 0 939.2 0.2 64
2019-10-12 07:00:00 17.5 5 Sudoeste 12 Oeste 0 939.1 -0.4 62
2019-10-12 06:00:00 17.7 6 Oeste 18 Oeste 0 939.2 -0.7 61
2019-10-12 05:00:00 17.1 3 Sur 7 Sur 0 939 -1.1 64
2019-10-12 04:00:00 18 3 Sur 8 Sur 0 939.5 -0.9 63
2019-10-12 03:00:00 18.1 4 Sur 8 Sur 0 939.9 -0.6 62
2019-10-12 02:00:00 19.1 2 Sudeste 8 Sur 0 940.1 -0.5 60
2019-10-12 01:00:00 19.7 3 Oeste 12 Sudoeste 0 940.4 0.3 58
2019-10-12 00:00:00 19.9 6 Sudoeste 14 Sudoeste 0 940.5 0.6 57
2019-10-11 23:00:00 20.6 4 Sudoeste 15 Sudoeste 0 940.6 1 54
2019-10-11 22:00:00 21.7 6 Sudoeste 15 Sudoeste 0 940.1 0.4 49
2019-10-11 21:00:00 23.3 5 Sudoeste 17 Sudoeste 0 939.9 0.1 45
2019-10-11 20:00:00 25 8 Sudoeste 22 Sudoeste 0 939.6 -0.5 38
2019-10-11 19:00:00 26.5 8 Sudoeste 24 Sudoeste 0 939.7 -1.1 33
2019-10-11 18:00:00 28 9 Sudoeste 24 Sudoeste 0 939.8 -2 33
2019-10-11 17:00:00 28.6 6 Sur 12 Sur 0 940.1 -2.9 31
2019-10-11 16:00:00 27.7 2 Este 8 Sur 0 940.8 -3.1 31
2019-10-11 15:00:00 26.5 3 Sudeste 6 Sudeste 0 941.8 -2.5 31
2019-10-11 14:00:00 23.2 2 Sudeste 6 Nordeste 0 943 -1.8 35
2019-10-11 13:00:00 19.5 3 Nordeste 8 Este 0 943.9 -0.8 43
2019-10-11 12:00:00 15.8 4 Nordeste 8 Nordeste 0 944.3 0.2 52
2019-10-11 11:00:00 12.6 5 Este 10 Nordeste 0 944.8 0.9 63
2019-10-11 10:00:00 9.3 5 Nordeste 7 Este 0 944.7 1 73
2019-10-11 09:00:00 7.7 2 Nordeste 5 Nordeste 0 944.1 0.4 75
2019-10-11 08:00:00 7.8 3 Nordeste 8 Nordeste 0 943.9 0.4 74
2019-10-11 07:00:00 8.3 3 Nordeste 8 Nordeste 0 943.7 0 72
2019-10-11 06:00:00 8.9 4 Nordeste 8 Norte 0 943.7 -0.2 68
2019-10-11 05:00:00 9.4 3 Nordeste 7 Nordeste 0 943.5 -0.3 66
2019-10-11 04:00:00 10.1 3 Nordeste 7 Norte 0 943.7 -0.3 61
2019-10-11 03:00:00 11.4 3 Nordeste 5 Norte 0 943.9 -0.2 55
2019-10-11 02:00:00 12.5 4 Nordeste 5 Nordeste 0 943.8 -0.1 53
2019-10-11 01:00:00 13.5 2 Noroeste 6 Nordeste 0 944 0.4 48
2019-10-11 00:00:00 14.8 3 Norte 6 Nordeste 0 944.1 0.8 44
2019-10-10 23:00:00 16.2 4 Nordeste 6 Norte 0 943.9 0.8 41
2019-10-10 22:00:00 17.9 4 Norte 6 Noroeste 0 943.6 0.5 38
2019-10-10 21:00:00 19.4 3 Noroeste 4 Norte 0 943.3 0.2 40
2019-10-10 20:00:00 21.4 3 Norte 10 Norte 0 943.1 -0.3 37
2019-10-10 19:00:00 22.8 5 Nordeste 13 Norte 0 943.1 -0.9 35
2019-10-10 18:00:00 23.9 5 Este 17 Norte 0 943.1 -1.4 34
2019-10-10 17:00:00 24.8 6 Nordeste 19 Nordeste 0 943.4 -2.1 33
2019-10-10 16:00:00 23.9 8 Nordeste 19 Nordeste 0 944 -2 33
2019-10-10 15:00:00 23 8 Nordeste 24 Norte 0 944.5 -2 35
2019-10-10 14:00:00 20.9 10 Nordeste 23 Nordeste 0 945.5 -1.3 43
2019-10-10 13:00:00 18.2 10 Nordeste 19 Este 0 946 -0.5 50
2019-10-10 12:00:00 14.7 10 Nordeste 22 Este 0 946.5 0.5 61
2019-10-10 11:00:00 11.9 9 Nordeste 18 Nordeste 0 946.8 0.8 71
2019-10-10 10:00:00 9.5 8 Nordeste 17 Nordeste 0 946.5 1 81
2019-10-10 09:00:00 8.4 6 Nordeste 19 Norte 0 946 0.5 84
2019-10-10 08:00:00 8.5 11 Norte 17 Nordeste 0 946 0.5 85
2019-10-10 07:00:00 8.9 7 Nordeste 17 Norte 0 945.5 0 82
2019-10-10 06:00:00 9 8 Norte 17 Norte 0 945.5 -0.2 81
2019-10-10 05:00:00 9.5 8 Norte 16 Norte 0 945.5 -0.2 77
2019-10-10 04:00:00 10.1 8 Norte 18 Norte 0 945.5 0 75
2019-10-10 03:00:00 10.4 8 Norte 14 Norte 0 945.7 0.3 72
2019-10-10 02:00:00 11.4 5 Nordeste 10 Nordeste 0 945.7 1 66
2019-10-10 01:00:00 12.4 6 Nordeste 18 Nordeste 0 945.5 1.3 65
2019-10-10 00:00:00 13.7 10 Nordeste 21 Nordeste 0 945.4 1.5 61
2019-10-09 23:00:00 15.3 4 Noroeste 10 Norte 0 944.7 1.3 38
2019-10-09 22:00:00 16.6 2 Norte 4 Nordeste 0 944.2 1 38
2019-10-09 21:00:00 18.1 4 Norte 9 Norte 0 943.9 0.9 36
2019-10-09 20:00:00 20 5 Nordeste 17 Norte 0 943.4 0.1 32
2019-10-09 19:00:00 21.5 11 Norte 20 Norte 0 943.2 -0.5 26
2019-10-09 18:00:00 22.7 9 Norte 19 Nordeste 0 943 -1.2 27
2019-10-09 17:00:00 23.3 7 Norte 21 Norte 0 943.3 -1.3 29
2019-10-09 16:00:00 22.7 10 Nordeste 22 Norte 0 943.7 -1.5 29
2019-10-09 15:00:00 21.8 10 Norte 26 Norte 0 944.2 -1.2 28
2019-10-09 14:00:00 20.5 12 Nordeste 22 Norte 0 944.6 -0.9 33
2019-10-09 13:00:00 19.2 11 Nordeste 22 Nordeste 0 945.2 0.1 39
2019-10-09 12:00:00 17 11 Nordeste 22 Nordeste 0 945.4 0.5 46
2019-10-09 11:00:00 15.1 10 Nordeste 17 Este 0 945.5 1.1 53
2019-10-09 10:00:00 13 8 Nordeste 14 Este 0 945.1 1.9 63
2019-10-09 09:00:00 13 6 Nordeste 13 Este 0 944.9 1 70
2019-10-09 08:00:00 13.8 5 Nordeste 9 Nordeste 0 944.4 1.6 76
2019-10-09 07:00:00 14.4 5 Sudeste 9 Este 0 943.2 0.7 80
2019-10-09 06:00:00 14.4 5 Nordeste 10 Nordeste 0 943.9 1.3 87
2019-10-09 05:00:00 15.3 4 Sudoeste 10 Oeste 0 942.8 -0.3 85
2019-10-09 04:00:00 16.4 4 Oeste 12 Sudoeste 0 942.5 -0.3 81
2019-10-09 03:00:00 17.4 6 Sudoeste 11 Sudoeste 0 942.6 0.1 77
2019-10-09 02:00:00 18.1 4 Oeste 9 Oeste 0 943.1 0.9 73
2019-10-09 01:00:00 18.9 3 Oeste 10 Noroeste 0 942.8 0.8 68
2019-10-09 00:00:00 20.4 4 Oeste 12 Noroeste 0 942.5 0.7 62
2019-10-08 23:00:00 21.4 3 Oeste 8 Oeste 0 942.2 0.8 58
2019-10-08 22:00:00 22 3 Oeste 9 Oeste 0 942 0.9 55
2019-10-08 21:00:00 23.4 5 Noroeste 15 Oeste 0 941.8 0.9 50
2019-10-08 20:00:00 24.9 5 Oeste 25 Sudoeste 0 941.4 0.4 46
2019-10-08 19:00:00 26.4 9 Oeste 23 Sudoeste 0 941.1 -0.4 40
2019-10-08 18:00:00 28 9 Oeste 26 Oeste 0 940.9 -1 35
2019-10-08 17:00:00 29.7 6 Oeste 23 Noroeste 0 941 -1.7 31
2019-10-08 16:00:00 29.3 8 Oeste 22 Oeste 0 941.5 -2.1 32
2019-10-08 15:00:00 28.4 8 Sudoeste 23 Oeste 0 941.9 -2.4 38
2019-10-08 14:00:00 27 8 Sudoeste 18 Sudoeste 0 942.7 -1.7 39
2019-10-08 13:00:00 23.8 3 Sur 8 Sudeste 0 943.6 -0.8 37
2019-10-08 12:00:00 19.5 2 Norte 7 Norte 0 944.3 0.1 44
2019-10-08 11:00:00 16 3 Nordeste 8 Este 0 944.4 0.5 53
2019-10-08 10:00:00 13.6 3 Sudeste 6 Sur 0 944.4 0.5 61
2019-10-08 09:00:00 11.8 5 Sur 6 Sur 0 944.2 0.5 67
2019-10-08 08:00:00 11.6 2 Norte 5 Este 0 943.9 0.1 62
2019-10-08 07:00:00 11.7 3 Sudeste 5 Este 0 943.9 0.2 62
2019-10-08 06:00:00 12.1 0 Calma 4 Nordeste 0 943.7 -0.5 59
2019-10-08 05:00:00 13.1 3 Nordeste 6 Sudeste 0 943.8 -0.3 57
2019-10-08 04:00:00 13.8 4 Este 8 Este 0 943.7 -0.6 56
2019-10-08 03:00:00 14.6 2 Norte 5 Nordeste 0 944.2 -0.4 53
2019-10-08 02:00:00 15.6 0 Calma 5 Norte 0 944.1 -0.4 52
2019-10-08 01:00:00 17.9 0 Calma 12 Sudoeste 0 944.3 0.1 44
2019-10-08 00:00:00 18.1 4 Sur 9 Sudoeste 0 944.6 0.9 41
2019-10-07 23:00:00 19.1 0 Calma 5 Sur 0 944.5 1 42
2019-10-07 22:00:00 20.8 3 Sur 4 Sudoeste 0 944.2 0.7 38
2019-10-07 21:00:00 22.6 3 Sur 8 Sudeste 0 943.7 0.2 34
2019-10-07 20:00:00 24.4 6 Sudeste 11 Este 0 943.5 -0.6 31
2019-10-07 19:00:00 26 6 Este 12 Sudeste 0 943.5 -1 29
2019-10-07 18:00:00 27.8 3 Sur 13 Sur 0 943.5 -1.4 24
2019-10-07 17:00:00 28.3 4 Este 9 Sudoeste 0 944.1 -1.6 24
2019-10-07 16:00:00 27.3 5 Sur 11 Sur 0 944.5 -1.7 26
2019-10-07 15:00:00 24.8 4 Sudoeste 8 Sur 0 944.9 -1.6 30
2019-10-07 14:00:00 22.8 4 Norte 11 Este 0 945.7 -1.1 36
2019-10-07 13:00:00 20.4 3 Nordeste 9 Este 0 946.2 -0.3 53
2019-10-07 12:00:00 17.7 3 Este 9 Este 0 946.5 0.1 62
2019-10-07 11:00:00 14.4 5 Este 11 Norte 0 946.8 0.8 74
2019-10-07 10:00:00 11.3 0 Calma 5 Noroeste 0 946.5 1.1 84
2019-10-07 09:00:00 9.8 2 Noroeste 7 Norte 0 946.4 1.2 86
2019-10-07 08:00:00 9.8 6 Norte 8 Norte 0 946 0.9 85
2019-10-07 07:00:00 10.3 4 Nordeste 7 Nordeste 0 945.4 0.1 82
2019-10-07 06:00:00 11.3 2 Norte 6 Noroeste 0 945.2 -0.4 77
2019-10-07 05:00:00 12 0 Calma 6 Nordeste 0 945.1 -0.6 68
2019-10-07 04:00:00 13.1 3 Norte 8 Nordeste 0 945.3 -0.4 67
2019-10-07 03:00:00 14.2 3 Sudeste 6 Sur 0 945.6 -0.1 61
2019-10-07 02:00:00 14.9 3 Noroeste 4 Noroeste 0 945.7 0.1 50
2019-10-07 01:00:00 16.1 0 Calma 6 Oeste 0 945.7 0.7 49
2019-10-07 00:00:00 17.4 2 Oeste 5 Norte 0 945.7 1.2 44
2019-10-06 23:00:00 18.6 4 Noroeste 9 Noroeste 0 945.6 1.2 42
2019-10-06 22:00:00 20.4 3 Sudoeste 11 Oeste 0 945 1 38
2019-10-06 21:00:00 21.9 6 Oeste 14 Oeste 0 944.5 0.6 35
2019-10-06 20:00:00 23.2 4 Oeste 17 Sudoeste 0 944.4 0.1 30
2019-10-06 19:00:00 24.7 5 Oeste 15 Oeste 0 944 -0.6 30
2019-10-06 18:00:00 26.1 5 Oeste 17 Oeste 0 943.9 -1.3 28
2019-10-06 17:00:00 25.9 5 Oeste 14 Oeste 0 944.3 -1.8 31
2019-10-06 16:00:00 25.1 7 Este 13 Sur 0 944.6 -1.8 37
2019-10-06 15:00:00 23.8 5 Sur 13 Sudeste 0 945.2 -1.3 40
2019-10-06 14:00:00 22 3 Sur 13 Sudoeste 0 946.1 -0.8 46
2019-10-06 13:00:00 19.1 3 Noroeste 11 Sur 0 946.4 0.4 55
2019-10-06 12:00:00 16.9 3 Este 10 Norte 0 946.5 1 64
2019-10-06 11:00:00 14.1 6 Nordeste 10 Nordeste 0 946.9 2.3 74
2019-10-06 10:00:00 12.2 3 Norte 5 Noroeste 0 946 1.2 82
2019-10-06 09:00:00 10.2 2 Noroeste 8 Nordeste 0 945.5 1.3 88
2019-10-06 08:00:00 9.7 4 Sur 6 Sur 0 944.6 0.8 90
2019-10-06 07:00:00 10.1 3 Norte 5 Este 0 944.8 0.9 80
2019-10-06 06:00:00 10.9 2 Oeste 8 Sudoeste 0 944.2 0 80
2019-10-06 05:00:00 13.1 4 Sudoeste 9 Sudoeste 0 943.8 0.4 76
2019-10-06 04:00:00 13.4 2 Oeste 8 Sudoeste 0 943.9 0.5 75
2019-10-06 03:00:00 14.4 3 Noroeste 9 Sudoeste 0 944.2 1 69
2019-10-06 02:00:00 15.5 3 Oeste 10 Oeste 0 943.4 0.1 66
2019-10-06 01:00:00 16.4 4 Oeste 13 Sudoeste 0 943.4 1 63
2019-10-06 00:00:00 17.2 5 Sudoeste 14 Sudoeste 0 943.2 1 59
2019-10-05 23:00:00 18 7 Oeste 17 Oeste 0 943.3 1.6 52
2019-10-05 22:00:00 19.1 7 Oeste 17 Oeste 0 942.4 1.2 48
2019-10-05 21:00:00 20 5 Oeste 17 Noroeste 0 942.2 1.2 45
2019-10-05 20:00:00 22.1 7 Oeste 19 Sudoeste 0 941.7 0.9 39
2019-10-05 19:00:00 23.6 8 Oeste 21 Oeste 0 941.2 0 31
2019-10-05 18:00:00 25.4 7 Oeste 19 Noroeste 0 941 -0.8 34
2019-10-05 17:00:00 26.3 8 Oeste 19 Sudoeste 0 940.8 -1.9 35
2019-10-05 16:00:00 25.2 5 Sudoeste 12 Sudoeste 0 941.2 -1.8 41
2019-10-05 15:00:00 23.4 5 Oeste 10 Oeste 0 941.8 -1.5 49
2019-10-05 14:00:00 21.5 4 Norte 14 Norte 0 942.7 -0.5 55
2019-10-05 13:00:00 18.6 7 Norte 15 Noroeste 0 943 0.1 64
2019-10-05 12:00:00 15.9 5 Norte 15 Norte 0 943.3 1 75
2019-10-05 11:00:00 13.7 7 Norte 15 Norte 0 943.2 1.4 85
2019-10-05 10:00:00 11.5 3 Nordeste 8 Nordeste 0 942.9 1.2 88
2019-10-05 09:00:00 10.2 0 Calma 4 Nordeste 0 942.3 0.6 90
2019-10-05 08:00:00 10.6 3 Norte 9 Norte 0 941.8 0.2 88
2019-10-05 07:00:00 11.1 4 Norte 9 Norte 0 941.7 -0.1 87
2019-10-05 06:00:00 11.8 3 Norte 5 Norte 0 941.7 -0.2 84
2019-10-05 05:00:00 13 2 Norte 5 Oeste 0 941.6 -0.2 80
2019-10-05 04:00:00 13.3 3 Oeste 9 Sudoeste 0 941.8 -0.1 76
2019-10-05 03:00:00 14 0 Calma 8 Oeste 0 941.9 0.3 71
2019-10-05 02:00:00 14.8 3 Sur 5 Sur 0 941.8 0.2 69
2019-10-05 01:00:00 17 4 Oeste 9 Oeste 0 941.9 0.4 65
2019-10-05 00:00:00 17.6 2 Noroeste 9 Oeste 0 941.6 0.5 60
2019-10-04 23:00:00 19.2 5 Oeste 11 Oeste 0 941.6 0.8 55
2019-10-04 22:00:00 20.1 5 Oeste 9 Sudoeste 0 941.5 1 52
2019-10-04 21:00:00 21.3 2 Oeste 12 Oeste 0 941.1 0.6 48
2019-10-04 20:00:00 22.7 4 Oeste 16 Oeste 0 940.8 0.3 44
2019-10-04 19:00:00 23.7 5 Sudoeste 20 Sudoeste 0 940.5 -0.7 41
2019-10-04 18:00:00 24.9 7 Oeste 19 Sudoeste 0 940.5 -1.7 39
2019-10-04 17:00:00 25.6 7 Oeste 19 Sudoeste 0 940.5 -2.8 39
2019-10-04 16:00:00 25.4 6 Sudoeste 17 Oeste 0 941.2 -2.6 42
2019-10-04 15:00:00 23.5 6 Sudoeste 17 Sur 0 942.2 -1.7 50
2019-10-04 14:00:00 21.9 4 Oeste 13 Oeste 0 943.3 -0.6 60
2019-10-04 13:00:00 19.9 5 Noroeste 14 Norte 0 943.8 0.3 69
2019-10-04 12:00:00 17.1 3 Noroeste 11 Noroeste 0 943.9 0.4 83
2019-10-04 11:00:00 15.3 5 Oeste 10 Noroeste 0 943.9 0.9 90
2019-10-04 10:00:00 14.8 4 Oeste 9 Noroeste 0 943.5 0.5 93
2019-10-04 09:00:00 13.9 3 Noroeste 9 Oeste 0 943.5 0.7 95
2019-10-04 08:00:00 13.4 2 Oeste 9 Oeste 0 943 0 92
2019-10-04 07:00:00 12.3 0 Calma 6 Norte 0 943 -0.3 83
2019-10-04 06:00:00 14 2 Noroeste 13 Oeste 0 942.8 -0.9 85
2019-10-04 05:00:00 14.7 5 Oeste 13 Oeste 0 943 -0.9 83
2019-10-04 04:00:00 15.2 3 Oeste 12 Sudoeste 0 943.3 -0.8 79
2019-10-04 03:00:00 15.8 3 Sudoeste 15 Sudoeste 0 943.7 -0.3 74
2019-10-04 02:00:00 16.4 3 Sudoeste 10 Sudoeste 0 943.9 0.3 69
2019-10-04 01:00:00 17.5 4 Oeste 12 Sudoeste 0 944.1 0.8 63
2019-10-04 00:00:00 18.2 3 Noroeste 12 Oeste 0 944 1.2 58
2019-10-03 23:00:00 19.5 5 Sudoeste 17 Oeste 0 943.6 1.1 56
2019-10-03 22:00:00 20.7 6 Oeste 17 Noroeste 0 943.3 1.1 47
2019-10-03 21:00:00 22.2 5 Oeste 15 Oeste 0 942.8 0.4 40
2019-10-03 20:00:00 23.9 4 Oeste 14 Oeste 0 942.5 -0.5 28
2019-10-03 19:00:00 25.3 5 Oeste 12 Sudoeste 0 942.2 -1.1 27
2019-10-03 18:00:00 26.8 6 Sudoeste 17 Sudoeste 0 942.4 -1.4 25
2019-10-03 17:00:00 27.1 6 Oeste 19 Sudoeste 0 943 -1.4 23
2019-10-03 16:00:00 26 5 Oeste 16 Norte 0 943.3 -1.7 28
2019-10-03 15:00:00 24.5 6 Noroeste 18 Norte 0 943.8 -1.7 31
2019-10-03 14:00:00 22.5 6 Sudoeste 14 Sudoeste 0 944.4 -0.9 40
2019-10-03 13:00:00 19.2 4 Sur 10 Sudoeste 0 945 -0.4 49
2019-10-03 12:00:00 15.6 3 Norte 8 Norte 0 945.5 0.4 61
2019-10-03 11:00:00 13 5 Este 8 Nordeste 0 945.3 0.7 71
2019-10-03 10:00:00 9.9 0 Calma 4 Norte 0 945.4 0.7 81
2019-10-03 09:00:00 8.3 2 Norte 4 Este 0 945.1 0.6 82
2019-10-03 08:00:00 8.4 4 Este 5 Nordeste 0 944.6 0.3 78
2019-10-03 07:00:00 8.8 2 Noroeste 6 Noroeste 0 944.7 0.3 76
2019-10-03 06:00:00 9.1 4 Norte 7 Este 0 944.5 -0.1 71
2019-10-03 05:00:00 9.9 6 Nordeste 9 Nordeste 0 944.3 -0.4 67
2019-10-03 04:00:00 11.3 3 Nordeste 6 Nordeste 0 944.4 -0.3 59
2019-10-03 03:00:00 11.7 2 Nordeste 5 Norte 0 944.6 -0.1 59
2019-10-03 02:00:00 12.1 3 Noroeste 22 Este 0 944.7 -0.2 61
2019-10-03 01:00:00 13.8 0 Calma 5 Noroeste 0 944.7 0.3 51
2019-10-03 00:00:00 14.8 0 Calma 5 Noroeste 0 944.7 0.5 50
2019-10-02 23:00:00 15.8 3 Noroeste 4 Oeste 0 944.9 0.9 46
2019-10-02 22:00:00 17.1 0 Calma 5 Sur 0 944.4 0.7 43
2019-10-02 21:00:00 18.8 4 Sur 8 Sudeste 0 944.2 0.8 39
2019-10-02 20:00:00 20.2 5 Este 9 Norte 0 944 0.3 35
2019-10-02 19:00:00 21.6 5 Nordeste 16 Norte 0 943.7 -0.2 31
2019-10-02 18:00:00 23.3 3 Sur 14 Nordeste 0 943.4 -0.7 28
2019-10-02 17:00:00 23.1 9 Nordeste 18 Norte 0 943.7 -0.8 32
2019-10-02 16:00:00 22.9 6 Este 19 Norte 0 943.9 -0.7 31
2019-10-02 15:00:00 22.5 5 Este 16 Nordeste 0 944.1 -0.9 34
2019-10-02 14:00:00 20.3 4 Nordeste 19 Nordeste 0 944.5 -0.5 38
2019-10-02 13:00:00 19.4 7 Este 16 Este 0 944.6 0.3 42
2019-10-02 12:00:00 16.5 7 Norte 15 Norte 0 945 1.2 51
2019-10-02 11:00:00 13.8 4 Oeste 10 Oeste 0 945 1.7 63
2019-10-02 10:00:00 11.1 4 Oeste 9 Oeste 0 944.3 1.1 80
2019-10-02 09:00:00 10 4 Oeste 11 Sudoeste 0 943.8 0.8 84
2019-10-02 08:00:00 10 4 Oeste 12 Oeste 0 943.3 0.6 86
2019-10-02 07:00:00 10.4 3 Oeste 12 Noroeste 0 943.2 0.5 84
2019-10-02 06:00:00 10.8 4 Oeste 23 Oeste 0 943 0.1 82
2019-10-02 05:00:00 11.4 5 Oeste 20 Oeste 0 942.7 -0.2 80
2019-10-02 04:00:00 12.3 4 Oeste 14 Oeste 0 942.7 -0.1 75
2019-10-02 03:00:00 13.3 8 Oeste 19 Sudoeste 0 942.9 0 71
2019-10-02 02:00:00 14.3 6 Oeste 18 Oeste 0 942.9 0.6 65
2019-10-02 01:00:00 15.1 7 Oeste 19 Noroeste 0 942.8 1.5 62
2019-10-02 00:00:00 16.1 5 Noroeste 19 Noroeste 0 942.9 2.3 61
2019-10-01 23:00:00 17.5 8 Noroeste 26 Noroeste 0 942.3 2.2 59
2019-10-01 22:00:00 18.9 8 Oeste 26 Noroeste 0 941.3 1.5 53
2019-10-01 21:00:00 20.3 4 Oeste 18 Noroeste 0 940.6 0.9 46
2019-10-01 20:00:00 21.7 5 Oeste 21 Noroeste 0 940.1 0.4 42
2019-10-01 19:00:00 22.9 9 Oeste 27 Oeste 0 939.8 -0.1 38
2019-10-01 18:00:00 24.4 10 Oeste 27 Oeste 0 939.7 -0.6 36
2019-10-01 17:00:00 25.3 8 Oeste 23 Sudoeste 0 939.7 -1.3 34
2019-10-01 16:00:00 24.7 8 Noroeste 29 Sur 0 939.9 -1.5 35
2019-10-01 15:00:00 23.5 10 Oeste 31 Sudoeste 0 940.3 -1.1 42
2019-10-01 14:00:00 22.3 11 Oeste 31 Oeste 0 941 -0.4 50
2019-10-01 13:00:00 21.4 8 Oeste 27 Oeste 0 941.4 1 55
2019-10-01 12:00:00 20.7 8 Oeste 27 Oeste 0 941.4 1.1 57
2019-10-01 11:00:00 18.7 5 Oeste 21 Noroeste 0 941.4 1.8 65
2019-10-01 10:00:00 16.1 7 Oeste 18 Oeste 0 940.4 1.1 76
2019-10-01 09:00:00 14.6 6 Oeste 20 Oeste 0 940.3 1.1 86
2019-10-01 08:00:00 14.8 6 Sudoeste 17 Oeste 0 939.6 0.5 86
2019-10-01 07:00:00 15.5 8 Sudoeste 14 Sudoeste 0 939.3 0.1 82
2019-10-01 06:00:00 16.4 4 Oeste 15 Sudoeste 0 939.2 -0.5 79
2019-10-01 05:00:00 16.9 4 Oeste 13 Noroeste 0 939.1 -0.8 75
2019-10-01 04:00:00 17.6 5 Oeste 12 Noroeste 0 939.2 -0.8 68
2019-10-01 03:00:00 18 3 Sudoeste 8 Oeste 0 939.7 -0.5 64
2019-10-01 02:00:00 19 4 Oeste 10 Oeste 0 939.9 0 60
2019-10-01 01:00:00 19.9 6 Oeste 13 Oeste 0 940 0.5 55
2019-10-01 00:00:00 20.8 7 Oeste 14 Sudoeste 0 940.2 1 51
2019-09-30 23:00:00 21.5 7 Sudoeste 13 Sudoeste 0 939.9 0.6 42
2019-09-30 22:00:00 22.3 0 Calma 5 Oeste 0 939.5 0.4 40
2019-09-30 21:00:00 24.2 2 Noroeste 14 Oeste 0 939.2 -0.1 35
2019-09-30 20:00:00 26.4 4 Oeste 20 Oeste 0 939.3 -0.6 33
2019-09-30 19:00:00 27.5 5 Oeste 23 Oeste 0 939.1 -1.4 32
2019-09-30 18:00:00 29.3 8 Sudoeste 23 Sudoeste 0 939.3 -1.9 31
2019-09-30 17:00:00 29.7 6 Oeste 21 Oeste 0 939.9 -2.3 30
2019-09-30 16:00:00 29.3 6 Oeste 19 Oeste 0 940.5 -2.3 32
2019-09-30 15:00:00 27.7 5 Oeste 13 Norte 0 941.2 -2.2 41
2019-09-30 14:00:00 26.2 4 Este 11 Este 0 942.2 -1.4 48
2019-09-30 13:00:00 24.2 4 Sur 12 Sur 0 942.8 -0.8 56
2019-09-30 12:00:00 21.4 4 Este 7 Este 0 943.4 0.3 63
2019-09-30 11:00:00 18 3 Este 5 Nordeste 0 943.6 0.7 72
2019-09-30 10:00:00 14.4 3 Norte 5 Nordeste 0 943.6 0.6 83
2019-09-30 09:00:00 12.7 3 Nordeste 6 Este 0 943.1 0 86
2019-09-30 08:00:00 13.2 2 Sudeste 7 Sur 0 942.9 -0.3 84
2019-09-30 07:00:00 13.6 4 Sur 6 Sur 0 943 -0.5 86
2019-09-30 06:00:00 14.1 0 Calma 7 Noroeste 0 943.1 -0.7 79
2019-09-30 05:00:00 15.7 2 Noroeste 9 Sudoeste 0 943.2 -0.8 81
2019-09-30 04:00:00 16.4 3 Oeste 6 Oeste 0 943.5 -0.4 76
2019-09-30 03:00:00 16.6 0 Calma 6 Oeste 0 943.8 0.1 68
2019-09-30 02:00:00 16.9 0 Calma 4 Sur 0 944 0.6 65
2019-09-30 01:00:00 18 3 Norte 8 Sudoeste 0 943.9 0.8 60
2019-09-30 00:00:00 19.7 4 Sudoeste 12 Oeste 0 943.7 1.1 59
2019-09-29 23:00:00 20.8 4 Oeste 13 Oeste 0 943.4 1.3 54
2019-09-29 22:00:00 21.8 4 Oeste 12 Noroeste 0 943.1 1.3 44
2019-09-29 21:00:00 23.1 4 Noroeste 12 Noroeste 0 942.6 0.7 39
2019-09-29 20:00:00 25.2 4 Oeste 21 Oeste 0 942.1 0 33
2019-09-29 19:00:00 26.7 9 Oeste 25 Oeste 0 941.8 -0.7 27
2019-09-29 18:00:00 28.2 10 Oeste 24 Sudoeste 0 941.9 -1.2 23
2019-09-29 17:00:00 29 8 Oeste 23 Noroeste 0 942.1 -1.7 23
2019-09-29 16:00:00 28.6 9 Oeste 26 Oeste 0 942.5 -1.5 22
2019-09-29 15:00:00 27.6 10 Oeste 25 Oeste 0 943.1 -1.2 25
2019-09-29 14:00:00 26.7 8 Oeste 22 Sudoeste 0 943.8 -0.4 24
2019-09-29 13:00:00 24.4 9 Sudoeste 17 Sudoeste 0 944 0.2 26
2019-09-29 12:00:00 21.3 5 Sudoeste 13 Sudoeste 0 944.3 0.9 35
2019-09-29 11:00:00 16.8 3 Sudoeste 8 Sudoeste 0 944.2 1.1 55
2019-09-29 10:00:00 12.3 3 Norte 9 Norte 0 943.8 1 65
2019-09-29 09:00:00 10.6 5 Nordeste 8 Nordeste 0 943.4 0.5 72
2019-09-29 08:00:00 10 3 Noroeste 7 Norte 0 943.1 0.3 72
2019-09-29 07:00:00 10.7 4 Sudeste 7 Sur 0 942.8 -0.1 69
2019-09-29 06:00:00 11.2 2 Sur 8 Sudoeste 0 942.9 -0.6 56
2019-09-29 05:00:00 11.3 0 Calma 6 Norte 0 942.8 -0.8 60
2019-09-29 04:00:00 12.7 4 Sur 6 Sur 0 942.9 -0.6 62
2019-09-29 03:00:00 13.3 2 Noroeste 4 Sudeste 0 943.5 -0.1 58
2019-09-29 02:00:00 14.1 2 Sudeste 5 Norte 0 943.6 0.3 52
2019-09-29 01:00:00 15.7 3 Sudoeste 5 Oeste 0 943.5 0.4 42
2019-09-29 00:00:00 16.4 4 Noroeste 8 Nordeste 0 943.6 0.7 43
2019-09-28 23:00:00 18.9 0 Calma 6 Noroeste 0 943.3 0.7 31
2019-09-28 22:00:00 20.3 0 Calma 8 Noroeste 0 943.1 0.4 27
2019-09-28 21:00:00 22.9 3 Sudoeste 10 Sudoeste 0 942.9 0.1 21
2019-09-28 20:00:00 25 3 Oeste 12 Sudoeste 0 942.6 -0.7 19
2019-09-28 19:00:00 26.5 6 Sudoeste 15 Sudoeste 0 942.7 -1.3 17
2019-09-28 18:00:00 27.6 4 Este 9 Sur 0 942.8 -2 28
2019-09-28 17:00:00 27.4 5 Sudeste 12 Sur 0 943.3 -2.4 26
2019-09-28 16:00:00 25.5 3 Norte 10 Sur 0 944 -2.3 30
2019-09-28 15:00:00 24.2 5 Sudoeste 11 Sudoeste 0 944.8 -1.9 36
2019-09-28 14:00:00 22.3 4 Este 10 Nordeste 0 945.7 -1.1 48
2019-09-28 13:00:00 19.5 4 Este 12 Este 0 946.3 0 58
2019-09-28 12:00:00 17.3 5 Nordeste 14 Nordeste 0 946.7 0.9 62
2019-09-28 11:00:00 13.7 8 Norte 13 Norte 0 946.8 1.4 73
2019-09-28 10:00:00 10.4 5 Nordeste 9 Norte 0 946.3 1 85
2019-09-28 09:00:00 8.5 2 Nordeste 4 Nordeste 0 945.8 0.4 89
2019-09-28 08:00:00 8.9 5 Nordeste 8 Nordeste 0 945.4 0.1 87
2019-09-28 07:00:00 9.9 2 Noroeste 4 Noroeste 0 945.3 -0.2 91
2019-09-28 06:00:00 9.9 2 Norte 6 Este 0 945.4 -0.2 87
2019-09-28 05:00:00 11.2 0 Calma 4 Norte 0 945.3 -0.4 83
2019-09-28 04:00:00 12.2 0 Calma 5 Oeste 0 945.5 -0.3 82
2019-09-28 03:00:00 13.5 3 Noroeste 6 Sudoeste 0 945.6 -0.1 78
2019-09-28 02:00:00 14.7 0 Calma 6 Noroeste 0 945.7 0.3 74
2019-09-28 01:00:00 15.6 2 Oeste 5 Norte 0 945.8 0.9 71
2019-09-28 00:00:00 16.1 3 Sudeste 7 Oeste 0 945.7 1.3 68
2019-09-27 23:00:00 17.4 3 Noroeste 12 Norte 0 945.4 1.4 63
2019-09-27 22:00:00 19 5 Noroeste 14 Noroeste 0 944.9 1.2 59
2019-09-27 21:00:00 20.6 5 Oeste 26 Noroeste 0 944.4 1 54
2019-09-27 20:00:00 22 7 Oeste 24 Oeste 0 944 0.7 49
2019-09-27 19:00:00 23.8 9 Oeste 23 Oeste 0 943.7 0.1 45
2019-09-27 18:00:00 26.1 9 Oeste 25 Oeste 0 943.4 -0.8 37
2019-09-27 17:00:00 26.7 7 Oeste 25 Norte 0 943.3 -1.4 36
2019-09-27 16:00:00 26.2 9 Oeste 26 Sudoeste 0 943.6 -1.6 36
2019-09-27 15:00:00 25.4 7 Oeste 22 Oeste 0 944.2 -1.4 37
2019-09-27 14:00:00 23.9 6 Oeste 16 Sudoeste 0 944.7 -1.1 41
2019-09-27 13:00:00 21.4 5 Oeste 15 Sudoeste 0 945.2 -0.3 49
2019-09-27 12:00:00 19 5 Oeste 14 Oeste 0 945.6 0.3 56
2019-09-27 11:00:00 16 5 Sudoeste 16 Oeste 0 945.8 1 70
2019-09-27 10:00:00 13.6 3 Sudeste 10 Sudoeste 0 945.5 0.9 78
2019-09-27 09:00:00 11.3 0 Calma 7 Noroeste 0 945.3 0.7 89
2019-09-27 08:00:00 10 3 Noroeste 5 Oeste 0 944.8 0.3 84
2019-09-27 07:00:00 10.1 2 Norte 8 Sudoeste 0 944.6 0.1 78
2019-09-27 06:00:00 10.4 0 Calma 6 Norte 0 944.6 -0.1 77
2019-09-27 05:00:00 12.1 2 Sur 4 Sur 0 944.5 -0.2 74
2019-09-27 04:00:00 12.5 0 Calma 5 Sur 0 944.5 -0.2 65
2019-09-27 03:00:00 13.8 3 Noroeste 5 Oeste 0 944.7 0 62
2019-09-27 02:00:00 14.8 0 Calma 4 Sudoeste 0 944.7 0.4 56
2019-09-27 01:00:00 16.1 2 Oeste 7 Sur 0 944.7 0.8 50
2019-09-27 00:00:00 17.4 4 Sur 7 Sur 0 944.7 1.4 46
2019-09-26 23:00:00 19.9 3 Sudoeste 21 Sudoeste 0 944.3 1.5 42
2019-09-26 22:00:00 20.9 8 Oeste 17 Oeste 0 943.9 1.2 36
2019-09-26 21:00:00 22.3 6 Oeste 14 Oeste 0 943.3 0.8 29
2019-09-26 20:00:00 24.1 4 Oeste 18 Oeste 0 942.8 0 23
2019-09-26 19:00:00 25.7 7 Oeste 22 Oeste 0 942.7 -0.5 19
2019-09-26 18:00:00 27.4 8 Oeste 19 Oeste 0 942.5 -1 19
2019-09-26 17:00:00 27.7 7 Sudoeste 22 Oeste 0 942.8 -1.2 20
2019-09-26 16:00:00 26.7 7 Sudoeste 23 Sudoeste 0 943.2 -1.1 22
2019-09-26 15:00:00 25.8 6 Oeste 17 Noroeste 0 943.5 -1.3 27
2019-09-26 14:00:00 24.3 5 Oeste 16 Sudoeste 0 944 -0.8 33
2019-09-26 13:00:00 21.3 6 Sudoeste 17 Oeste 0 944.3 -0.3 47
2019-09-26 12:00:00 18.4 5 Oeste 15 Sudoeste 0 944.8 0.5 59
2019-09-26 11:00:00 16.1 3 Sur 10 Oeste 0 944.8 0.8 72
2019-09-26 10:00:00 13.3 4 Sudoeste 11 Sudoeste 0 944.6 0.9 81
2019-09-26 09:00:00 11.8 4 Sudoeste 10 Sudoeste 0 944.3 0.6 88
2019-09-26 08:00:00 11.6 3 Noroeste 5 Oeste 0 944 0.2 86
2019-09-26 07:00:00 12.3 2 Oeste 8 Oeste 0 943.7 -0.1 83
2019-09-26 06:00:00 12.7 0 Calma 8 Sudoeste 0 943.7 -0.4 81
2019-09-26 05:00:00 13.3 3 Sudoeste 9 Sudoeste 0 943.8 -0.2 78
2019-09-26 04:00:00 13.8 2 Sur 8 Oeste 0 943.8 -0.3 77
2019-09-26 03:00:00 14.6 4 Sudoeste 11 Oeste 0 944.1 0.3 74
2019-09-26 02:00:00 15.2 6 Sudoeste 13 Sudoeste 0 944 0.6 71
2019-09-26 01:00:00 16 5 Oeste 13 Sudoeste 0 944.1 0.9 67
2019-09-26 00:00:00 16.8 4 Oeste 12 Oeste 0 943.8 0.8 62
2019-09-25 23:00:00 17.9 6 Sudoeste 14 Oeste 0 943.4 0.8 58
2019-09-25 22:00:00 18.7 7 Oeste 15 Sudoeste 0 943.2 0.7 54
2019-09-25 21:00:00 19.7 4 Oeste 19 Oeste 0 943 0.4 50
2019-09-25 20:00:00 21.2 7 Oeste 19 Oeste 0 942.6 -0.1 45
2019-09-25 19:00:00 22.6 6 Oeste 19 Noroeste 0 942.5 -0.6 41
2019-09-25 18:00:00 23.8 5 Oeste 21 Oeste 0 942.6 -1 36
2019-09-25 17:00:00 23.9 6 Sudoeste 17 Oeste 0 942.7 -1.7 35
2019-09-25 16:00:00 24.1 4 Sur 14 Sudeste 0 943.1 -1.7 35
2019-09-25 15:00:00 22.6 5 Sudeste 16 Sur 0 943.6 -1.5 37
2019-09-25 14:00:00 21.6 8 Sudeste 19 Sur 0 944.4 -0.7 40
2019-09-25 13:00:00 19.8 4 Sudeste 12 Sur 0 944.8 0 46
2019-09-25 12:00:00 17.2 4 Sudoeste 9 Sur 0 945.1 0.9 57
2019-09-25 11:00:00 15.1 4 Noroeste 17 Oeste 0 945.1 1.3 67
2019-09-25 10:00:00 12 4 Oeste 13 Sudoeste 0 944.8 1.2 81
2019-09-25 09:00:00 10.5 5 Oeste 12 Oeste 0 944.2 0.7 84
2019-09-25 08:00:00 10.3 3 Sur 8 Sudoeste 0 943.8 0.3 84
2019-09-25 07:00:00 11 4 Oeste 12 Sudoeste 0 943.6 0.1 81
2019-09-25 06:00:00 11.5 2 Sudoeste 13 Oeste 0 943.5 -0.3 80
2019-09-25 05:00:00 12.1 4 Oeste 12 Noroeste 0 943.5 -0.3 78
2019-09-25 04:00:00 13 4 Oeste 12 Oeste 0 943.5 -0.4 80
2019-09-25 03:00:00 13.6 4 Oeste 17 Sudoeste 0 943.8 -0.1 75
2019-09-25 02:00:00 14.3 6 Oeste 17 Sudoeste 0 943.8 0.2 77
2019-09-25 01:00:00 14.8 3 Noroeste 16 Noroeste 0 943.9 0.6 73
2019-09-25 00:00:00 15.8 6 Oeste 22 Noroeste 0 943.9 1.3 67
2019-09-24 23:00:00 16.9 5 Oeste 21 Oeste 0 943.6 1.8 60
2019-09-24 22:00:00 18 6 Oeste 20 Noroeste 0 943.3 1.6 56
2019-09-24 21:00:00 19.4 7 Noroeste 23 Noroeste 0 942.6 1.3 51
2019-09-24 20:00:00 21.2 8 Oeste 29 Noroeste 0 941.8 0.2 47
2019-09-24 19:00:00 22.8 11 Oeste 30 Noroeste 0 941.7 -0.6 47
2019-09-24 18:00:00 24.2 9 Oeste 29 Noroeste 0 941.3 -1.5 47
2019-09-24 17:00:00 24.9 11 Oeste 31 Oeste 0 941.6 -1.6 43
2019-09-24 16:00:00 23.7 10 Oeste 30 Oeste 0 942.3 -1.2 52
2019-09-24 15:00:00 22.6 8 Oeste 27 Oeste 0 942.8 -0.8 58
2019-09-24 14:00:00 21.3 12 Oeste 31 Oeste 0 943.2 -0.5 64
2019-09-24 13:00:00 21 7 Oeste 27 Oeste 0 943.5 0.1 63
2019-09-24 12:00:00 19.2 8 Sudoeste 21 Sudoeste 0 943.6 0.3 70
2019-09-24 11:00:00 17.4 6 Sudoeste 17 Sudoeste 0 943.7 0.8 75
2019-09-24 10:00:00 15.6 6 Sudoeste 18 Sudoeste 0 943.4 0.6 77
2019-09-24 09:00:00 14.1 7 Sudoeste 17 Oeste 0 943.3 0.3 81
2019-09-24 08:00:00 13.4 6 Oeste 22 Sudoeste 0 942.9 -0.3 84
2019-09-24 07:00:00 13.3 6 Oeste 19 Oeste 0 942.8 -0.6 86
2019-09-24 06:00:00 13.6 6 Sudoeste 14 Sudoeste 0 943 -0.7 84
2019-09-24 05:00:00 14.1 6 Sudoeste 19 Oeste 0 943.2 -0.8 81
2019-09-24 04:00:00 14.4 5 Sudoeste 17 Oeste 0 943.4 -0.8 78
2019-09-24 03:00:00 15 5 Sudoeste 16 Sudoeste 0 943.7 -0.7 72
2019-09-24 02:00:00 15.9 5 Sudoeste 14 Sudoeste 0 944 -0.3 66
2019-09-24 01:00:00 16.7 7 Sudoeste 17 Sudoeste 0 944.2 0.1 64
2019-09-24 00:00:00 17.9 5 Sudoeste 16 Oeste 0 944.4 0.6 59
2019-09-23 23:00:00 18.6 5 Oeste 10 Oeste 0 944.3 0.8 53
2019-09-23 22:00:00 19.5 3 Sudoeste 8 Sudoeste 0 944.1 0.6 50
2019-09-23 21:00:00 20.8 4 Oeste 11 Noroeste 0 943.8 0.4 44
2019-09-23 20:00:00 21.8 3 Oeste 15 Noroeste 0 943.5 -0.3 42
2019-09-23 19:00:00 22.6 9 Sudoeste 23 Oeste 0 943.5 -0.4 39
2019-09-23 18:00:00 23.9 8 Oeste 21 Oeste 0 943.4 -0.8 35
2019-09-23 17:00:00 23.3 9 Sudoeste 23 Noroeste 0 943.8 -1 36
2019-09-23 16:00:00 23 10 Sudoeste 21 Sudoeste 0 943.9 -1.4 35
2019-09-23 15:00:00 22.3 8 Sudoeste 18 Sudoeste 0 944.2 -1.4 38
2019-09-23 14:00:00 20.6 6 Sudoeste 17 Sudoeste 0 944.8 -1 43
2019-09-23 13:00:00 18.8 7 Sudoeste 15 Oeste 0 945.3 0.2 54
2019-09-23 12:00:00 16.8 7 Sudoeste 15 Oeste 0 945.6 1.2 62
2019-09-23 11:00:00 14.2 5 Oeste 14 Sudoeste 0 945.8 1.3 75
2019-09-23 10:00:00 12.8 4 Sudoeste 12 Sur 0 945.1 0.7 81
2019-09-23 09:00:00 11.1 5 Sur 14 Sur 0 944.4 0.4 85
2019-09-23 08:00:00 10.2 3 Sur 8 Sudeste 0 944.5 0.9 89
2019-09-23 07:00:00 10.5 3 Sur 6 Sudoeste 0 944.4 0.7 88
2019-09-23 06:00:00 10.7 0 Calma 5 Sudeste 0 944 0.7 88
2019-09-23 05:00:00 11.1 2 Norte 5 Sur 0 943.6 0.2 83
2019-09-23 04:00:00 11.8 3 Norte 13 Oeste 0 943.7 0.8 80
2019-09-23 03:00:00 12.9 4 Sudoeste 13 Sudoeste 0 943.3 0.3 77
2019-09-23 02:00:00 13.3 6 Oeste 14 Sudoeste 0 943.4 1 74
2019-09-23 01:00:00 14.1 6 Sudoeste 12 Oeste 0 942.9 1 70
2019-09-23 00:00:00 14.6 3 Sudoeste 11 Sudoeste 0 943 1.6 67
2019-09-22 23:00:00 15.6 5 Oeste 13 Oeste 0 942.4 1.6 61
2019-09-22 22:00:00 16.5 3 Oeste 18 Oeste 0 941.9 1.3 55
2019-09-22 21:00:00 17.7 5 Oeste 14 Oeste 0 941.4 1.3 49
2019-09-22 20:00:00 18.9 7 Oeste 18 Oeste 0 940.8 0.6 44
2019-09-22 19:00:00 19.8 6 Oeste 21 Oeste 0 940.6 0.5 39
2019-09-22 18:00:00 21.2 8 Noroeste 26 Oeste 0 940.1 -0.1 38
2019-09-22 17:00:00 21.2 8 Oeste 24 Noroeste 0 940.2 0.1 41
2019-09-22 16:00:00 21.3 10 Sudoeste 28 Oeste 0 940.1 -0.4 40
2019-09-22 15:00:00 20.6 8 Oeste 22 Sudoeste 0 940.2 -0.1 47
2019-09-22 14:00:00 20 8 Noroeste 23 Oeste 0 940.1 0 51
2019-09-22 13:00:00 17.8 6 Oeste 17 Oeste 0 940.5 1 63
2019-09-22 12:00:00 16 5 Oeste 16 Sudoeste 0 940.3 1.4 72
2019-09-22 11:00:00 14.9 6 Sudoeste 17 Sudoeste 0 940.1 2 77
2019-09-22 10:00:00 13.8 7 Sudoeste 21 Sudoeste 0 939.5 1.9 83
2019-09-22 09:00:00 12.9 8 Sudoeste 18 Sudoeste 0 938.9 1.5 86
2019-09-22 08:00:00 12.4 7 Sudoeste 17 Oeste 0 938.1 1.1 88
2019-09-22 07:00:00 12.4 7 Sudoeste 18 Oeste 0 937.6 0.7 87
2019-09-22 06:00:00 12.6 6 Sudoeste 14 Sudoeste 0 937.4 1 86
2019-09-22 05:00:00 12.7 5 Oeste 15 Oeste 0 937 0.9 86
2019-09-22 04:00:00 13.4 4 Oeste 19 Sudoeste 0 936.9 1.2 88
2019-09-22 03:00:00 13.6 4 Oeste 20 Sudoeste 0 936.4 1.6 88
2019-09-22 02:00:00 13.5 8 Oeste 22 Oeste 0 936.1 1.2 88
2019-09-22 01:00:00 14 5 Oeste 30 Noroeste 0.6 935.7 0.9 88
2019-09-22 00:00:00 17.2 7 Sudoeste 23 Sudoeste 0.6 934.8 0.7 91
2019-09-21 23:00:00 17.7 9 Sudoeste 24 Sudoeste 0 934.9 0.4 85
2019-09-21 22:00:00 18.1 7 Sudoeste 24 Sudoeste 0 934.8 0 78
2019-09-21 21:00:00 18.1 5 Sur 19 Sur 0 934.1 -0.6 77
2019-09-21 20:00:00 18.4 6 Sudoeste 23 Sudoeste 0.4 934.5 0 79
2019-09-21 19:00:00 19.3 7 Sudoeste 27 Sur 0 934.8 0 76
2019-09-21 18:00:00 20.4 9 Sur 35 Sur 0 934.7 -0.6 68
2019-09-21 17:00:00 21.4 13 Sudoeste 28 Sudoeste 0 934.5 -1.5 57
2019-09-21 16:00:00 21.7 11 Sudoeste 28 Sudoeste 0 934.8 -1.6 58
2019-09-21 15:00:00 21.5 10 Sur 29 Sudeste 0 935.3 -1.4 59
2019-09-21 14:00:00 18.9 8 Sudoeste 24 Sudeste 0 936 -0.5 70
2019-09-21 13:00:00 18 7 Sur 20 Sudeste 0.2 936.4 0.1 79
2019-09-21 12:00:00 17.5 9 Sudoeste 22 Sur 0.2 936.7 0.6 80
2019-09-21 11:00:00 17.1 6 Sur 18 Sur 0.4 936.5 0.4 83
2019-09-21 10:00:00 17.8 6 Sur 17 Sudoeste 0 936.3 0.3 70
2019-09-21 09:00:00 16.8 6 Sur 15 Sudoeste 0 936.1 -0.5 72
2019-09-21 08:00:00 16.5 4 Sur 9 Sur 0 936.1 -0.6 73
2019-09-21 07:00:00 16.7 3 Sudeste 7 Sur 0 936 -1.1 71
2019-09-21 06:00:00 16.8 4 Sudeste 12 Sur 0 936.6 -0.6 70
2019-09-21 05:00:00 17.1 4 Sur 14 Sudoeste 0 936.7 -0.3 69
2019-09-21 04:00:00 18 5 Sudoeste 13 Sudoeste 0 937.1 0 67
2019-09-21 03:00:00 18.7 4 Sudoeste 13 Sudoeste 0 937.2 -0.2 65
2019-09-21 02:00:00 19.3 5 Sudoeste 18 Sudoeste 0 937 -0.3 61
2019-09-21 01:00:00 19.9 6 Sudoeste 21 Sur 0 937.1 -0.1 58
2019-09-21 00:00:00 20.2 6 Sudoeste 15 Sudoeste 0 937.4 0.6 56
2019-09-20 23:00:00 20.6 5 Sur 19 Sur 0 937.3 0.8 53
2019-09-20 22:00:00 21 4 Sur 15 Sur 0 937.2 0.8 56
2019-09-20 21:00:00 22.4 8 Sur 24 Sudoeste 0 936.8 0.6 51
2019-09-20 20:00:00 23.4 5 Sur 19 Sudoeste 0.2 936.5 -0.1 53
2019-09-20 19:00:00 25.2 8 Sur 26 Sudoeste 0 936.4 -0.8 42
2019-09-20 18:00:00 27.2 11 Sudoeste 28 Sudoeste 0 936.2 -1.7 33
2019-09-20 17:00:00 27.1 4 Sur 22 Sudoeste 0 936.6 -1.7 33
2019-09-20 16:00:00 28.5 7 Sudoeste 17 Sudeste 0 937.2 -1.8 27
2019-09-20 15:00:00 26.9 7 Sudoeste 18 Sudoeste 0 937.9 -1.7 31
2019-09-20 14:00:00 26.8 9 Sur 22 Sudoeste 0 938.3 -1.3 37
2019-09-20 13:00:00 24.1 6 Oeste 13 Oeste 0 939 -0.6 47
2019-09-20 12:00:00 22.6 4 Sur 8 Sur 0 939.6 0.3 55
2019-09-20 11:00:00 19 3 Noroeste 10 Nordeste 0 939.6 0.5 69
2019-09-20 10:00:00 16.9 6 Nordeste 12 Este 0 939.6 0.5 80
2019-09-20 09:00:00 15.5 4 Nordeste 10 Norte 0 939.3 0.3 84
2019-09-20 08:00:00 15.3 4 Nordeste 11 Nordeste 0 939.1 -0.1 84
2019-09-20 07:00:00 15.4 5 Norte 9 Norte 0 939.1 -0.7 82
2019-09-20 06:00:00 15.7 5 Nordeste 11 Nordeste 0 939 -1 79
2019-09-20 05:00:00 16.5 5 Nordeste 14 Norte 0 939.2 -1 71
2019-09-20 04:00:00 17.4 4 Norte 9 Norte 0 939.8 -0.6 64
2019-09-20 03:00:00 18.8 3 Nordeste 7 Nordeste 0 940 -0.4 53
2019-09-20 02:00:00 19 0 Calma 4 Noroeste 0 940.2 -0.3 51
2019-09-20 01:00:00 19.7 0 Calma 5 Nordeste 0 940.4 0 48
2019-09-20 00:00:00 20.1 4 Nordeste 7 Nordeste 0 940.4 0.6 47
2019-09-19 23:00:00 21.2 3 Nordeste 4 Nordeste 0 940.5 1 46
2019-09-19 22:00:00 22.5 3 Norte 9 Nordeste 0 940.4 0.9 46
2019-09-19 21:00:00 24.3 4 Nordeste 8 Nordeste 0 939.8 0.1 43
2019-09-19 20:00:00 26 3 Este 10 Este 0 939.5 -0.7 40
2019-09-19 19:00:00 27.6 7 Este 17 Nordeste 0 939.5 -1.3 37
2019-09-19 18:00:00 29.3 6 Sudeste 13 Este 0 939.7 -1.7 32
2019-09-19 17:00:00 29.5 6 Sudeste 14 Este 0 940.2 -1.8 30
2019-09-19 16:00:00 28.7 7 Sudeste 17 Sudeste 0 940.8 -1.8 35
2019-09-19 15:00:00 27.5 9 Este 18 Nordeste 0 941.4 -1.6 38
2019-09-19 14:00:00 26 6 Nordeste 15 Nordeste 0 942 -1.2 44
2019-09-19 13:00:00 23.9 6 Este 16 Nordeste 0 942.6 -0.4 53
2019-09-19 12:00:00 21.3 6 Nordeste 14 Este 0 943 0.3 64
2019-09-19 11:00:00 18.6 8 Nordeste 16 Este 0 943.2 0.9 76
2019-09-19 10:00:00 16.4 10 Nordeste 17 Nordeste 0 943 0.8 85
2019-09-19 09:00:00 14.9 4 Nordeste 10 Norte 0 942.7 0.5 92
2019-09-19 08:00:00 14.5 0 Calma 7 Nordeste 0 942.3 0 91
2019-09-19 07:00:00 15 4 Norte 10 Norte 0 942.2 -0.2 90
2019-09-19 06:00:00 15.2 4 Norte 11 Norte 0 942.2 -0.5 89
2019-09-19 05:00:00 15.8 3 Norte 5 Norte 0 942.3 -0.1 82
2019-09-19 04:00:00 16.7 3 Nordeste 6 Nordeste 0 942.4 0.1 76
2019-09-19 03:00:00 17.2 0 Calma 6 Nordeste 0 942.7 0.4 74
2019-09-19 02:00:00 18 3 Nordeste 5 Nordeste 0 942.4 0.1 68
2019-09-19 01:00:00 18.7 3 Nordeste 6 Nordeste 0 942.3 0.2 65
2019-09-19 00:00:00 19.7 2 Nordeste 5 Norte 0 942.3 0.8 60
2019-09-18 23:00:00 20.5 3 Nordeste 6 Nordeste 0 942.3 1.1 57
2019-09-18 22:00:00 21.8 4 Nordeste 8 Nordeste 0 942.1 1.2 54
2019-09-18 21:00:00 23.4 3 Nordeste 9 Nordeste 0 941.5 0.6 48
2019-09-18 20:00:00 24.7 6 Nordeste 13 Nordeste 0 941.2 0.1 44
2019-09-18 19:00:00 26.6 6 Nordeste 14 Este 0 940.9 -0.7 37
2019-09-18 18:00:00 27.8 5 Este 16 Norte 0 940.9 -1.3 35
2019-09-18 17:00:00 27.2 7 Norte 18 Noroeste 0 941.1 -1.6 36
2019-09-18 16:00:00 27.2 8 Norte 19 Este 0 941.6 -1.4 38
2019-09-18 15:00:00 25.8 8 Nordeste 19 Este 0 942.2 -0.9 40
2019-09-18 14:00:00 24.8 4 Sudeste 16 Este 0 942.7 -0.2 50
2019-09-18 13:00:00 22.5 6 Este 17 Nordeste 0 943 0.4 60
2019-09-18 12:00:00 20.1 6 Nordeste 19 Norte 0 943.1 1 70
2019-09-18 11:00:00 17.7 9 Nordeste 14 Nordeste 0 942.9 1.2 80
2019-09-18 10:00:00 15.6 3 Este 6 Nordeste 0 942.6 1.2 87
2019-09-18 09:00:00 13.9 2 Noroeste 4 Noroeste 0 942.1 0.5 92
2019-09-18 08:00:00 13.8 0 Calma 8 Nordeste 0 941.7 0.3 89
2019-09-18 07:00:00 14.2 4 Nordeste 8 Nordeste 0 941.4 -0.3 87
2019-09-18 06:00:00 14.8 5 Nordeste 12 Este 0 941.6 -0.6 86
2019-09-18 05:00:00 15.6 7 Sudeste 16 Este 0 941.4 -0.2 82
2019-09-18 04:00:00 15.8 8 Este 13 Este 0 941.7 0.5 83
2019-09-18 03:00:00 17 5 Este 38 Este 0 942.2 0.2 77
2019-09-18 02:00:00 17.3 9 Norte 18 Nordeste 0 941.6 -1.2 75
2019-09-18 01:00:00 18.1 3 Oeste 13 Oeste 0 941.2 -1 67
2019-09-18 00:00:00 18 4 Sur 21 Sudeste 0 942 -- 69
2019-09-17 23:00:00 19.1 12 Sur 27 Sur 0 942.8 2.6 65
2019-09-17 22:00:00 21.9 5 Sur 12 Noroeste 0 942.2 2.5 43
2019-09-17 21:00:00 22.7 3 Oeste 15 Oeste 0 -- -- 40
2019-09-15 18:00:00 23.9 12 Este 24 Nordeste 0 943.3 -1.3 50
2019-09-15 17:00:00 24 14 Este 31 Nordeste 0 943.5 -1.6 54
2019-09-15 16:00:00 23.8 16 Nordeste 27 Nordeste 0 943.8 -1.3 54
2019-09-15 15:00:00 22.8 13 Nordeste 27 Nordeste 0 944.6 -1.3 58
2019-09-15 14:00:00 22.4 14 Nordeste 26 Nordeste 0 945.1 -0.7 60
2019-09-15 13:00:00 21.5 13 Nordeste 23 Nordeste 0 945.1 -0.4 65
2019-09-15 12:00:00 18.7 10 Nordeste 23 Nordeste 0 945.9 0.4 77
2019-09-15 11:00:00 18.3 13 Nordeste 24 Norte 0 945.8 0.5 80
2019-09-15 10:00:00 16.4 4 Noroeste 12 Norte 0.8 945.5 0.7 90
2019-09-15 09:00:00 16.1 7 Norte 15 Nordeste 0.8 945.5 0.8 87
2019-09-15 08:00:00 16.7 4 Sudeste 11 Norte 0 945.3 0 84
2019-09-15 07:00:00 16.7 7 Nordeste 15 Nordeste 0 944.8 -1 86
2019-09-15 06:00:00 16.8 5 Nordeste 13 Norte 0 944.7 -1.5 86
2019-09-15 05:00:00 16.7 7 Norte 11 Norte 0 945.3 -0.9 84
2019-09-15 04:00:00 16.8 4 Norte 9 Nordeste 0 945.8 -0.5 81
2019-09-15 03:00:00 17.4 5 Este 11 Nordeste 0 946.2 -0.2 76
2019-09-15 02:00:00 17.8 6 Este 13 Este 0 946.2 -0.1 76
2019-09-15 01:00:00 18.7 4 Sudeste 18 Este 0 946.3 0.2 70
2019-09-15 00:00:00 19.2 9 Este 19 Este 0 946.4 0.6 65